Time;durP1;ratioP1;P1;durP2;ratioP2;P2;SDS_P1;SDS_P2;PMS_P1;PMS_P2;Temp;Humidity;BMP_temperature;BMP_pressure;BME280_temperature;BME280_humidity;BME280_pressure;Samples;Min_cycle;Max_cycle;Signal;HPM_P1;HPM_P2
2023/01/01 00:01:06;;;;;;;20.80;14.60;;;;;;;;;;5023679;28;20442;-74
2023/01/01 00:03:32;;;;;;;19.50;15.93;;;;;;;;;;5024726;28;20433;-74
2023/01/01 00:05:58;;;;;;;18.40;15.07;;;;;;;;;;5022208;28;20431;-74
2023/01/01 00:08:24;;;;;;;22.83;16.30;;;;;;;;;;5025204;28;20866;-77
2023/01/01 00:10:50;;;;;;;16.97;15.17;;;;;;;;;;5022487;28;20440;-74
2023/01/01 00:13:16;;;;;;;18.57;16.60;;;;;;;;;;5025601;28;21216;-77
2023/01/01 00:15:42;;;;;;;20.40;16.70;;;;;;;;;;5018382;28;20443;-74
2023/01/01 00:18:08;;;;;;;21.80;17.40;;;;;;;;;;5026501;28;20494;-76
2023/01/01 00:20:34;;;;;;;21.40;16.97;;;;;;;;;;5029247;28;20762;-76
2023/01/01 00:23:00;;;;;;;24.87;20.50;;;;;;;;;;5023919;28;20501;-80
2023/01/01 00:25:26;;;;;;;39.03;28.57;;;;;;;;;;5021659;28;20423;-75
2023/01/01 00:27:52;;;;;;;27.40;24.07;;;;;;;;;;5024798;28;20771;-75
2023/01/01 00:30:18;;;;;;;31.80;26.60;;;;;;;;;;5023918;28;20618;-76
2023/01/01 00:32:44;;;;;;;29.53;25.47;;;;;;;;;;5022939;28;20753;-75
2023/01/01 00:35:10;;;;;;;29.00;24.37;;;;;;;;;;5018227;28;20871;-74
2023/01/01 00:37:36;;;;;;;31.20;25.73;;;;;;;;;;5015581;28;20416;-75
2023/01/01 00:40:02;;;;;;;30.83;24.43;;;;;;;;;;5024558;28;20449;-76
2023/01/01 00:42:28;;;;;;;27.93;24.90;;;;;;;;;;5028122;28;21162;-74
2023/01/01 00:44:54;;;;;;;28.43;22.73;;;;;;;;;;5018723;28;20490;-75
2023/01/01 00:47:20;;;;;;;25.63;22.60;;;;;;;;;;5025853;28;20426;-75
2023/01/01 00:49:46;;;;;;;25.40;21.80;;;;;;;;;;5027080;28;20426;-75
2023/01/01 00:52:12;;;;;;;19.10;17.10;;;;;;;;;;5024172;28;20802;-76
2023/01/01 00:54:38;;;;;;;26.63;22.67;;;;;;;;;;5025758;28;20482;-78
2023/01/01 00:57:04;;;;;;;27.93;22.10;;;;;;;;;;5025626;28;20394;-76
2023/01/01 00:59:30;;;;;;;29.83;20.93;;;;;;;;;;5029098;28;20428;-74
2023/01/01 01:01:56;;;;;;;20.57;17.23;;;;;;;;;;5024654;28;20778;-73
2023/01/01 01:04:22;;;;;;;27.07;20.90;;;;;;;;;;5023209;28;20429;-74
2023/01/01 01:06:48;;;;;;;21.70;19.60;;;;;;;;;;5023072;28;20424;-73
2023/01/01 01:09:14;;;;;;;22.53;20.13;;;;;;;;;;5025070;28;20429;-75
2023/01/01 01:11:40;;;;;;;25.20;19.03;;;;;;;;;;5024490;28;20407;-75
2023/01/01 01:14:06;;;;;;;20.23;17.97;;;;;;;;;;5023838;28;21448;-76
2023/01/01 01:16:33;;;;;;;14.77;12.10;;;;;;;;;;5023044;28;20426;-76
2023/01/01 01:19:00;;;;;;;16.63;14.57;;;;;;;;;;5017705;28;20765;-75
2023/01/01 01:21:27;;;;;;;14.90;13.43;;;;;;;;;;5023902;28;20501;-76
2023/01/01 01:23:53;;;;;;;22.23;15.90;;;;;;;;;;5021236;28;20530;-76
2023/01/01 01:26:23;;;;;;;14.13;12.63;;;;;;;;;;5021693;28;20961;-74
2023/01/01 01:28:50;;;;;;;16.70;13.10;;;;;;;;;;5023227;28;20423;-76
2023/01/01 01:31:16;;;;;;;16.43;13.03;;;;;;;;;;5021855;28;20438;-75
2023/01/01 01:33:43;;;;;;;12.60;11.30;;;;;;;;;;5022911;28;20817;-75
2023/01/01 01:36:09;;;;;;;83.03;41.97;;;;;;;;;;5024002;28;20463;-76
2023/01/01 01:38:35;;;;;;;84.70;50.30;;;;;;;;;;5025934;28;20446;-75
2023/01/01 01:41:02;;;;;;;21.70;16.50;;;;;;;;;;5023887;28;21113;-75
2023/01/01 01:43:30;;;;;;;14.97;11.80;;;;;;;;;;5020666;28;20432;-76
2023/01/01 01:45:58;;;;;;;10.00;9.17;;;;;;;;;;5002975;28;20848;-76
2023/01/01 01:48:24;;;;;;;13.40;12.20;;;;;;;;;;5018237;28;20791;-76
2023/01/01 01:50:51;;;;;;;16.50;13.73;;;;;;;;;;5018536;28;20436;-73
2023/01/01 01:53:37;;;;;;;12.87;9.33;;;;;;;;;;5019047;28;20474;-76
2023/01/01 01:56:06;;;;;;;9.30;8.60;;;;;;;;;;5004328;28;20509;-75
2023/01/01 01:58:32;;;;;;;10.07;9.27;;;;;;;;;;5019062;28;20430;-76
2023/01/01 02:00:59;;;;;;;12.20;10.73;;;;;;;;;;5017641;28;20529;-75
2023/01/01 02:04:00;;;;;;;11.57;10.37;;;;;;;;;;5017591;28;20442;-74
2023/01/01 02:06:27;;;;;;;9.87;9.17;;;;;;;;;;4955822;28;20807;-75
2023/01/01 02:08:54;;;;;;;12.10;8.80;;;;;;;;;;5007200;28;20449;-75
2023/01/01 02:11:20;;;;;;;8.07;7.47;;;;;;;;;;5017869;28;20441;-75
2023/01/01 02:13:46;;;;;;;8.07;7.37;;;;;;;;;;5020933;28;21198;-74
2023/01/01 02:16:16;;;;;;;7.13;6.60;;;;;;;;;;5013927;28;20431;-74
2023/01/01 02:18:42;;;;;;;8.13;7.53;;;;;;;;;;5038537;28;20564;-76
2023/01/01 02:21:19;;;;;;;5.83;5.43;;;;;;;;;;5023537;28;20459;-73
2023/01/01 02:23:45;;;;;;;7.30;6.60;;;;;;;;;;5019375;28;20703;-75
2023/01/01 02:26:37;;;;;;;4.90;4.40;;;;;;;;;;5040131;28;20434;-74
2023/01/01 02:29:21;;;;;;;3.67;3.33;;;;;;;;;;5024084;28;20430;-74
2023/01/01 02:31:56;;;;;;;1.90;1.80;;;;;;;;;;5022948;28;20423;-73
2023/01/01 02:34:25;;;;;;;2.10;2.00;;;;;;;;;;5026499;28;20480;-75
2023/01/01 02:36:53;;;;;;;4.43;3.60;;;;;;;;;;5018822;28;20415;-77
2023/01/01 02:39:22;;;;;;;2.60;2.57;;;;;;;;;;5025745;28;20987;-77
2023/01/01 02:41:50;;;;;;;2.30;2.10;;;;;;;;;;5026756;28;20418;-76
2023/01/01 02:44:17;;;;;;;1.50;1.50;;;;;;;;;;5036823;28;20464;-75
2023/01/01 02:46:43;;;;;;;1.33;1.33;;;;;;;;;;5022938;28;20493;-75
2023/01/01 02:49:09;;;;;;;2.70;1.50;;;;;;;;;;5027426;28;20422;-75
2023/01/01 02:51:42;;;;;;;1.60;1.50;;;;;;;;;;5016703;28;20799;-75
2023/01/01 02:54:14;;;;;;;1.30;1.20;;;;;;;;;;5015987;28;20477;-75
2023/01/01 02:56:44;;;;;;;4.23;1.40;;;;;;;;;;5027619;28;20403;-75
2023/01/01 03:02:01;;;;;;;1.50;1.50;;;;;;;;;;5027456;28;20429;-75
2023/01/01 03:04:45;;;;;;;1.17;1.17;;;;;;;;;;5032788;28;20949;-74
2023/01/01 03:07:35;;;;;;;2.03;1.90;;;;;;;;;;5046790;28;20429;-74
2023/01/01 03:10:04;;;;;;;1.60;1.53;;;;;;;;;;4991060;28;20441;-74
2023/01/01 03:12:42;;;;;;;2.00;1.30;;;;;;;;;;5047234;28;20426;-75
2023/01/01 03:15:18;;;;;;;1.30;1.20;;;;;;;;;;5031387;28;20508;-74
2023/01/01 03:17:49;;;;;;;1.47;1.20;;;;;;;;;;5025388;28;20446;-75
2023/01/01 03:20:17;;;;;;;1.80;1.60;;;;;;;;;;5022762;28;21005;-75
2023/01/01 03:22:44;;;;;;;1.60;1.47;;;;;;;;;;5032429;28;20553;-75
2023/01/01 03:25:16;;;;;;;1.40;1.40;;;;;;;;;;5038016;28;20512;-74
2023/01/01 03:27:46;;;;;;;3.80;1.90;;;;;;;;;;5006726;28;20424;-74
2023/01/01 03:30:12;;;;;;;1.40;1.40;;;;;;;;;;5022708;28;20478;-74
2023/01/01 03:32:59;;;;;;;8.00;1.30;;;;;;;;;;5012893;28;20542;-74
2023/01/01 03:35:26;;;;;;;1.50;1.47;;;;;;;;;;5021179;28;21120;-73
2023/01/01 03:37:53;;;;;;;2.00;1.80;;;;;;;;;;5038939;28;20473;-74
2023/01/01 03:40:21;;;;;;;3.93;1.63;;;;;;;;;;5018625;28;20458;-74
2023/01/01 03:43:00;;;;;;;2.67;1.20;;;;;;;;;;5030757;28;20505;-74
2023/01/01 03:45:31;;;;;;;1.07;1.00;;;;;;;;;;5031226;28;20442;-74
2023/01/01 03:47:57;;;;;;;1.63;1.63;;;;;;;;;;5018735;28;20419;-75
2023/01/01 03:50:27;;;;;;;1.10;1.10;;;;;;;;;;5023514;28;20440;-75
2023/01/01 03:52:53;;;;;;;2.43;1.23;;;;;;;;;;5035583;28;20450;-76
2023/01/01 03:55:27;;;;;;;1.63;1.50;;;;;;;;;;5013758;28;20558;-74
2023/01/01 03:58:31;;;;;;;3.10;1.57;;;;;;;;;;5025378;28;20477;-74
2023/01/01 04:01:02;;;;;;;3.60;1.20;;;;;;;;;;4941546;28;20462;-74
2023/01/01 04:03:29;;;;;;;2.23;2.03;;;;;;;;;;4959468;28;20980;-74
2023/01/01 04:05:55;;;;;;;2.67;1.20;;;;;;;;;;4986852;28;20434;-74
2023/01/01 04:08:21;;;;;;;1.27;1.27;;;;;;;;;;5032254;28;21228;-75
2023/01/01 04:10:52;;;;;;;1.80;1.40;;;;;;;;;;5036250;28;20471;-73
2023/01/01 04:13:18;;;;;;;1.90;1.80;;;;;;;;;;5040769;28;20430;-74
2023/01/01 04:15:44;;;;;;;1.40;1.30;;;;;;;;;;5037201;28;20557;-74
2023/01/01 04:18:10;;;;;;;1.70;1.60;;;;;;;;;;5025700;28;20475;-74
2023/01/01 04:20:36;;;;;;;2.67;2.13;;;;;;;;;;5018601;28;20451;-75
2023/01/01 04:23:03;;;;;;;2.30;1.30;;;;;;;;;;5027419;28;20545;-74
2023/01/01 04:25:32;;;;;;;1.30;1.30;;;;;;;;;;5016598;28;20447;-76
2023/01/01 04:27:58;;;;;;;2.17;1.80;;;;;;;;;;5026391;28;20450;-76
2023/01/01 04:30:24;;;;;;;1.83;1.80;;;;;;;;;;5039482;28;20468;-75
2023/01/01 04:32:50;;;;;;;1.10;1.10;;;;;;;;;;5035773;28;20434;-76
2023/01/01 04:35:16;;;;;;;1.80;1.40;;;;;;;;;;5036854;28;21206;-75
2023/01/01 04:37:43;;;;;;;2.73;1.40;;;;;;;;;;5025750;28;20433;-75
2023/01/01 04:40:10;;;;;;;2.00;1.27;;;;;;;;;;5022276;28;21136;-75
2023/01/01 04:42:36;;;;;;;1.60;1.50;;;;;;;;;;5039170;28;20418;-74
2023/01/01 04:45:02;;;;;;;1.50;1.40;;;;;;;;;;5029503;28;20504;-75
2023/01/01 04:47:28;;;;;;;2.07;1.17;;;;;;;;;;5025115;28;20434;-74
2023/01/01 04:49:54;;;;;;;1.93;1.83;;;;;;;;;;5035277;28;20966;-75
2023/01/01 04:52:21;;;;;;;3.73;1.53;;;;;;;;;;5037133;28;20441;-74
2023/01/01 04:54:47;;;;;;;2.07;1.97;;;;;;;;;;5032361;28;20477;-75
2023/01/01 04:57:13;;;;;;;1.33;1.13;;;;;;;;;;5025573;28;20432;-74
2023/01/01 04:59:39;;;;;;;1.03;0.83;;;;;;;;;;5040489;28;20472;-74
2023/01/01 05:02:05;;;;;;;4.50;1.47;;;;;;;;;;5027354;28;20466;-73
2023/01/01 05:04:31;;;;;;;1.37;1.37;;;;;;;;;;5021941;28;21084;-74
2023/01/01 05:06:57;;;;;;;1.43;1.33;;;;;;;;;;5019475;28;20468;-74
2023/01/01 05:09:23;;;;;;;2.67;1.77;;;;;;;;;;5017008;28;20447;-75
2023/01/01 05:11:49;;;;;;;3.73;1.83;;;;;;;;;;5016958;28;20427;-75
2023/01/01 05:14:15;;;;;;;1.40;1.27;;;;;;;;;;5021851;28;20470;-75
2023/01/01 05:16:41;;;;;;;1.70;1.60;;;;;;;;;;5024835;28;20494;-75
2023/01/01 05:19:07;;;;;;;1.40;1.40;;;;;;;;;;5029942;28;20489;-74
2023/01/01 05:21:35;;;;;;;2.07;1.97;;;;;;;;;;5018410;28;20440;-74
2023/01/01 05:24:02;;;;;;;7.20;1.97;;;;;;;;;;5027728;28;20623;-75
2023/01/01 05:26:30;;;;;;;3.83;1.70;;;;;;;;;;5035688;28;20774;-75
2023/01/01 05:28:57;;;;;;;1.30;1.30;;;;;;;;;;5018229;28;20779;-75
2023/01/01 05:31:24;;;;;;;6.63;2.27;;;;;;;;;;5042785;28;20439;-75
2023/01/01 05:33:51;;;;;;;1.90;1.13;;;;;;;;;;5028961;28;20470;-75
2023/01/01 05:36:21;;;;;;;3.47;2.13;;;;;;;;;;5011896;28;21246;-75
2023/01/01 05:38:47;;;;;;;1.77;1.70;;;;;;;;;;5011816;28;20422;-76
2023/01/01 05:41:14;;;;;;;1.77;1.77;;;;;;;;;;5025156;28;20485;-76
2023/01/01 05:43:40;;;;;;;1.83;1.83;;;;;;;;;;5038505;28;20790;-74
2023/01/01 05:46:09;;;;;;;1.90;1.10;;;;;;;;;;5030472;28;20438;-74
2023/01/01 05:48:36;;;;;;;1.20;1.20;;;;;;;;;;5025822;28;20431;-75
2023/01/01 05:51:13;;;;;;;4.97;1.60;;;;;;;;;;5003832;28;20432;-75
2023/01/01 05:53:39;;;;;;;2.13;1.87;;;;;;;;;;5008658;28;20514;-75
2023/01/01 05:56:05;;;;;;;1.80;1.70;;;;;;;;;;5016306;28;20456;-74
2023/01/01 05:58:32;;;;;;;2.67;1.40;;;;;;;;;;5039564;28;20464;-75
2023/01/01 06:01:09;;;;;;;1.93;1.77;;;;;;;;;;5016881;28;20465;-74
2023/01/01 06:03:35;;;;;;;2.27;1.20;;;;;;;;;;5025399;28;20493;-74
2023/01/01 06:06:08;;;;;;;1.63;1.53;;;;;;;;;;5003835;28;21165;-75
2023/01/01 06:08:34;;;;;;;1.60;1.50;;;;;;;;;;5027897;28;20433;-75
2023/01/01 06:11:04;;;;;;;1.70;1.70;;;;;;;;;;5027111;28;20434;-75
2023/01/01 06:13:30;;;;;;;1.73;1.23;;;;;;;;;;5031500;28;20473;-75
2023/01/01 06:15:57;;;;;;;2.43;1.63;;;;;;;;;;5023594;28;20537;-75
2023/01/01 06:18:23;;;;;;;1.20;1.20;;;;;;;;;;5030397;28;20445;-75
2023/01/01 06:20:49;;;;;;;1.63;1.63;;;;;;;;;;5037139;28;20447;-75
2023/01/01 06:23:15;;;;;;;1.90;1.80;;;;;;;;;;5027698;28;20641;-75
2023/01/01 06:25:41;;;;;;;2.97;1.57;;;;;;;;;;5021614;28;20545;-75
2023/01/01 06:28:07;;;;;;;2.07;1.60;;;;;;;;;;5027984;28;20478;-76
2023/01/01 06:30:33;;;;;;;3.57;2.27;;;;;;;;;;5030948;28;20489;-75
2023/01/01 06:33:00;;;;;;;2.30;1.23;;;;;;;;;;5017255;28;21098;-75
2023/01/01 06:35:26;;;;;;;1.80;1.30;;;;;;;;;;5027034;28;20481;-76
2023/01/01 06:37:52;;;;;;;1.47;1.37;;;;;;;;;;5030967;28;20456;-75
2023/01/01 06:40:18;;;;;;;5.63;1.50;;;;;;;;;;5033905;28;20656;-76
2023/01/01 06:42:44;;;;;;;3.40;1.53;;;;;;;;;;5032493;28;20410;-75
2023/01/01 06:45:12;;;;;;;3.83;1.80;;;;;;;;;;5018690;28;20443;-75
2023/01/01 06:47:38;;;;;;;3.17;1.53;;;;;;;;;;5033498;28;20426;-75
2023/01/01 06:50:04;;;;;;;2.40;1.87;;;;;;;;;;5032411;28;20445;-75
2023/01/01 06:52:30;;;;;;;1.83;1.77;;;;;;;;;;5035899;28;21050;-75
2023/01/01 06:54:56;;;;;;;1.13;1.03;;;;;;;;;;5023430;28;20553;-77
2023/01/01 06:57:23;;;;;;;1.80;1.67;;;;;;;;;;5038389;28;20434;-75
2023/01/01 06:59:51;;;;;;;2.47;2.20;;;;;;;;;;5025265;28;20470;-75
2023/01/01 07:02:19;;;;;;;1.27;1.27;;;;;;;;;;5039072;28;20462;-75
2023/01/01 07:04:45;;;;;;;1.77;1.33;;;;;;;;;;5031051;28;20439;-75
2023/01/01 07:07:11;;;;;;;1.30;1.20;;;;;;;;;;5026943;28;20521;-76
2023/01/01 07:09:37;;;;;;;1.47;1.37;;;;;;;;;;5024905;28;20917;-74
2023/01/01 07:12:03;;;;;;;5.90;2.03;;;;;;;;;;5028377;28;20492;-76
2023/01/01 07:14:29;;;;;;;6.50;2.17;;;;;;;;;;5014647;28;20514;-74
2023/01/01 07:16:55;;;;;;;1.47;1.37;;;;;;;;;;5025029;28;20445;-75
2023/01/01 07:19:21;;;;;;;4.90;2.37;;;;;;;;;;5041320;28;20441;-75
2023/01/01 07:21:53;;;;;;;1.40;1.40;;;;;;;;;;5035971;28;21017;-74
2023/01/01 07:24:19;;;;;;;1.63;1.60;;;;;;;;;;5025669;28;20494;-75
2023/01/01 07:26:45;;;;;;;2.03;1.93;;;;;;;;;;5009440;28;20510;-76
2023/01/01 07:29:12;;;;;;;4.47;1.23;;;;;;;;;;5039329;28;20439;-75
2023/01/01 07:31:38;;;;;;;1.93;1.57;;;;;;;;;;5045588;28;20422;-75
2023/01/01 07:34:05;;;;;;;0.80;0.80;;;;;;;;;;5018260;28;20825;-74
2023/01/01 07:36:31;;;;;;;2.67;1.80;;;;;;;;;;5029199;28;21006;-75
2023/01/01 07:38:57;;;;;;;1.70;1.60;;;;;;;;;;5021341;28;20509;-74
2023/01/01 07:41:23;;;;;;;2.30;2.27;;;;;;;;;;5020338;28;20490;-75
2023/01/01 07:43:49;;;;;;;2.47;1.67;;;;;;;;;;5014300;28;20495;-75
2023/01/01 07:46:17;;;;;;;3.70;1.40;;;;;;;;;;5029143;28;20430;-74
2023/01/01 07:48:43;;;;;;;3.50;2.27;;;;;;;;;;5025595;28;20874;-75
2023/01/01 07:51:09;;;;;;;1.30;1.30;;;;;;;;;;5021364;28;20806;-75
2023/01/01 07:53:35;;;;;;;1.70;1.70;;;;;;;;;;5039963;28;20481;-75
2023/01/01 07:56:01;;;;;;;1.70;1.63;;;;;;;;;;5020828;28;20465;-75
2023/01/01 07:58:27;;;;;;;2.20;2.10;;;;;;;;;;5029634;28;20418;-75
2023/01/01 08:00:53;;;;;;;2.53;1.80;;;;;;;;;;5030043;28;20470;-75
2023/01/01 08:03:19;;;;;;;3.80;1.50;;;;;;;;;;5021120;28;20494;-76
2023/01/01 08:05:45;;;;;;;4.60;1.93;;;;;;;;;;5016847;28;20438;-76
2023/01/01 08:08:11;;;;;;;2.23;1.40;;;;;;;;;;5031637;28;20462;-74
2023/01/01 08:10:38;;;;;;;5.23;1.63;;;;;;;;;;5023891;28;20529;-74
2023/01/01 08:13:05;;;;;;;2.40;1.20;;;;;;;;;;5034657;28;20411;-74
2023/01/01 08:15:31;;;;;;;2.20;1.93;;;;;;;;;;5001022;28;21016;-76
2023/01/01 08:17:58;;;;;;;1.53;1.53;;;;;;;;;;5028692;28;20431;-75
2023/01/01 08:20:24;;;;;;;2.67;1.43;;;;;;;;;;5020991;28;20441;-75
2023/01/01 08:22:50;;;;;;;2.37;1.80;;;;;;;;;;5022603;28;20494;-74
2023/01/01 08:25:16;;;;;;;1.80;1.70;;;;;;;;;;5016050;28;20447;-75
2023/01/01 08:27:42;;;;;;;1.80;1.80;;;;;;;;;;5022399;28;20453;-74
2023/01/01 08:30:08;;;;;;;1.93;1.83;;;;;;;;;;5018241;28;21015;-74
2023/01/01 08:32:34;;;;;;;1.60;1.50;;;;;;;;;;5022711;28;20435;-75
2023/01/01 08:35:00;;;;;;;1.53;1.43;;;;;;;;;;5022661;28;20458;-76
2023/01/01 08:37:26;;;;;;;4.93;1.70;;;;;;;;;;5024333;28;20449;-75
2023/01/01 08:39:53;;;;;;;3.67;1.53;;;;;;;;;;5024789;28;20501;-77
2023/01/01 08:42:19;;;;;;;2.87;1.60;;;;;;;;;;5017890;28;20455;-75
2023/01/01 08:44:45;;;;;;;1.83;1.63;;;;;;;;;;5022435;28;20433;-76
2023/01/01 08:47:21;;;;;;;5.10;2.00;;;;;;;;;;5020194;28;20463;-77
2023/01/01 08:49:47;;;;;;;1.50;1.50;;;;;;;;;;5024163;28;20972;-75
2023/01/01 08:52:14;;;;;;;8.23;1.43;;;;;;;;;;5033051;28;20465;-75
2023/01/01 08:54:40;;;;;;;1.20;1.10;;;;;;;;;;5023413;28;20479;-74
2023/01/01 08:57:06;;;;;;;2.33;2.23;;;;;;;;;;5029775;28;20449;-75
2023/01/01 08:59:32;;;;;;;7.77;2.20;;;;;;;;;;5025385;28;20441;-73
2023/01/01 09:01:58;;;;;;;1.57;1.57;;;;;;;;;;5019226;28;20484;-73
2023/01/01 09:04:24;;;;;;;2.50;2.20;;;;;;;;;;5023823;28;20507;-76
2023/01/01 09:06:51;;;;;;;1.70;1.60;;;;;;;;;;5016279;28;20948;-75
2023/01/01 09:09:17;;;;;;;1.80;1.70;;;;;;;;;;5020448;28;20497;-74
2023/01/01 09:11:53;;;;;;;15.50;10.10;;;;;;;;;;5030826;28;20444;-78
2023/01/01 09:14:19;;;;;;;7.13;4.40;;;;;;;;;;5020641;28;20469;-76
2023/01/01 09:16:45;;;;;;;4.93;2.80;;;;;;;;;;5022244;28;20445;-75
2023/01/01 09:19:11;;;;;;;2.03;1.83;;;;;;;;;;5023526;28;20520;-76
2023/01/01 09:21:37;;;;;;;5.17;2.00;;;;;;;;;;5026550;28;20438;-76
2023/01/01 09:24:03;;;;;;;1.70;1.60;;;;;;;;;;5023470;28;20442;-75
2023/01/01 09:26:30;;;;;;;2.30;2.10;;;;;;;;;;5022560;28;20676;-76
2023/01/01 09:28:57;;;;;;;6.67;1.97;;;;;;;;;;5020413;28;20505;-76
2023/01/01 09:31:23;;;;;;;2.10;1.93;;;;;;;;;;5024070;28;20514;-75
2023/01/01 09:33:49;;;;;;;2.00;1.50;;;;;;;;;;5014336;28;20537;-75
2023/01/01 09:36:25;;;;;;;6.43;3.20;;;;;;;;;;5022862;28;20894;-75
2023/01/01 09:38:52;;;;;;;2.47;2.20;;;;;;;;;;5019492;28;20982;-75
2023/01/01 09:41:22;;;;;;;2.17;2.03;;;;;;;;;;5026779;28;20426;-75
2023/01/01 09:43:48;;;;;;;3.03;1.47;;;;;;;;;;5019439;28;20796;-75
2023/01/01 09:46:14;;;;;;;5.10;3.10;;;;;;;;;;5023678;28;20425;-75
2023/01/01 09:48:42;;;;;;;7.37;3.50;;;;;;;;;;5018497;28;20453;-74
2023/01/01 09:51:13;;;;;;;3.97;1.67;;;;;;;;;;5021552;28;20781;-76
2023/01/01 09:53:50;;;;;;;1.53;1.43;;;;;;;;;;5021072;28;21088;-75
2023/01/01 09:56:23;;;;;;;2.23;2.03;;;;;;;;;;5021896;28;21128;-76
2023/01/01 09:58:49;;;;;;;2.47;2.23;;;;;;;;;;5019837;28;20742;-75
2023/01/01 10:01:34;;;;;;;2.97;1.53;;;;;;;;;;5022485;28;20588;-77
2023/01/01 10:04:26;;;;;;;2.50;1.70;;;;;;;;;;5018122;28;20426;-74
2023/01/01 10:07:01;;;;;;;3.70;2.03;;;;;;;;;;5019943;28;20461;-75
2023/01/01 10:09:48;;;;;;;2.57;1.30;;;;;;;;;;5022894;28;20764;-75
2023/01/01 10:12:20;;;;;;;2.90;1.37;;;;;;;;;;5003158;28;21208;-75
2023/01/01 10:14:49;;;;;;;3.23;1.83;;;;;;;;;;5000674;28;20844;-75
2023/01/01 10:17:17;;;;;;;4.33;1.97;;;;;;;;;;5020331;28;20474;-74
2023/01/01 10:19:46;;;;;;;2.43;1.50;;;;;;;;;;5022040;28;20411;-77
2023/01/01 10:22:39;;;;;;;7.77;3.40;;;;;;;;;;5028791;28;20998;-76
2023/01/01 10:25:27;;;;;;;4.03;2.23;;;;;;;;;;5020333;28;20525;-74
2023/01/01 10:27:57;;;;;;;1.97;1.33;;;;;;;;;;5021987;28;20426;-74
2023/01/01 10:30:27;;;;;;;1.27;1.13;;;;;;;;;;5023154;28;20427;-76
2023/01/01 10:32:54;;;;;;;2.00;1.90;;;;;;;;;;5024352;28;20554;-75
2023/01/01 10:35:30;;;;;;;2.47;2.10;;;;;;;;;;5013327;28;20552;-76
2023/01/01 10:37:59;;;;;;;5.13;2.07;;;;;;;;;;4999890;28;20411;-74
2023/01/01 10:40:26;;;;;;;2.17;2.00;;;;;;;;;;5018383;28;20446;-75
2023/01/01 10:42:53;;;;;;;4.20;2.73;;;;;;;;;;5026603;28;20418;-74
2023/01/01 10:45:40;;;;;;;3.03;1.97;;;;;;;;;;5017891;28;20438;-75
2023/01/01 10:48:12;;;;;;;3.73;2.50;;;;;;;;;;5022793;28;20421;-74
2023/01/01 10:50:42;;;;;;;14.30;12.80;;;;;;;;;;5033334;28;20441;-76
2023/01/01 10:53:19;;;;;;;4.57;2.60;;;;;;;;;;5029823;28;20509;-76
2023/01/01 10:55:48;;;;;;;2.20;2.00;;;;;;;;;;5024133;28;20449;-76
2023/01/01 10:58:33;;;;;;;1.83;1.73;;;;;;;;;;5027334;28;20435;-76
2023/01/01 11:01:00;;;;;;;1.80;1.80;;;;;;;;;;5006266;28;20431;-75
2023/01/01 11:03:26;;;;;;;4.00;1.90;;;;;;;;;;5020190;28;20478;-76
2023/01/01 11:06:03;;;;;;;1.77;1.70;;;;;;;;;;5024038;28;20462;-75
2023/01/01 11:08:31;;;;;;;1.93;1.50;;;;;;;;;;5021456;28;20523;-75
2023/01/01 11:11:01;;;;;;;2.90;1.83;;;;;;;;;;5024608;28;20821;-75
2023/01/01 11:13:28;;;;;;;24.67;15.10;;;;;;;;;;5019948;28;20865;-80
2023/01/01 11:15:54;;;;;;;1.80;1.70;;;;;;;;;;5027698;28;20510;-77
2023/01/01 11:18:25;;;;;;;2.10;1.87;;;;;;;;;;5026824;28;20525;-74
2023/01/01 11:20:52;;;;;;;7.23;2.70;;;;;;;;;;5028559;28;20437;-75
2023/01/01 11:23:19;;;;;;;5.00;1.90;;;;;;;;;;5023636;28;20525;-75
2023/01/01 11:26:04;;;;;;;2.00;1.57;;;;;;;;;;5023496;28;20429;-74
2023/01/01 11:28:33;;;;;;;3.57;2.50;;;;;;;;;;5024120;28;20438;-75
2023/01/01 11:30:59;;;;;;;1.67;1.67;;;;;;;;;;5024850;28;20461;-74
2023/01/01 11:33:26;;;;;;;1.47;1.40;;;;;;;;;;5030742;28;20525;-75
2023/01/01 11:35:54;;;;;;;2.63;1.43;;;;;;;;;;5023453;28;20972;-74
2023/01/01 11:38:21;;;;;;;2.03;1.67;;;;;;;;;;5025045;28;20407;-75
2023/01/01 11:40:48;;;;;;;3.53;1.70;;;;;;;;;;5036312;28;20485;-74
2023/01/01 11:43:18;;;;;;;2.87;2.23;;;;;;;;;;5021932;28;20440;-74
2023/01/01 11:45:44;;;;;;;2.30;1.97;;;;;;;;;;5027630;28;20537;-75
2023/01/01 11:48:13;;;;;;;1.97;1.87;;;;;;;;;;5022463;28;20855;-75
2023/01/01 11:50:40;;;;;;;4.07;1.73;;;;;;;;;;5018710;28;20427;-76
2023/01/01 11:53:18;;;;;;;5.37;1.77;;;;;;;;;;5030709;28;20489;-74
2023/01/01 11:55:46;;;;;;;4.70;2.03;;;;;;;;;;5007279;28;20478;-77
2023/01/01 11:58:12;;;;;;;3.53;2.20;;;;;;;;;;5027651;28;20435;-75
2023/01/01 12:00:38;;;;;;;4.10;1.90;;;;;;;;;;5021887;28;20433;-75
2023/01/01 12:03:25;;;;;;;5.20;3.60;;;;;;;;;;5023852;28;20403;-76
2023/01/01 12:06:02;;;;;;;2.63;2.07;;;;;;;;;;5023008;28;20426;-75
2023/01/01 12:08:41;;;;;;;2.40;1.60;;;;;;;;;;5020348;28;20411;-74
2023/01/01 12:11:34;;;;;;;2.33;1.63;;;;;;;;;;5024044;28;20444;-75
2023/01/01 12:14:19;;;;;;;2.23;1.50;;;;;;;;;;5022468;28;21298;-76
2023/01/01 12:16:49;;;;;;;5.47;2.20;;;;;;;;;;5016464;28;21184;-74
2023/01/01 12:19:27;;;;;;;3.60;1.80;;;;;;;;;;5025107;28;20441;-75
2023/01/01 12:21:57;;;;;;;2.87;2.10;;;;;;;;;;5022427;28;20940;-76
2023/01/01 12:24:23;;;;;;;2.43;1.70;;;;;;;;;;5027301;28;21146;-75
2023/01/01 12:26:52;;;;;;;2.70;1.80;;;;;;;;;;5021796;28;20857;-74
2023/01/01 12:29:36;;;;;;;3.50;1.77;;;;;;;;;;5032082;28;20446;-74
2023/01/01 12:32:25;;;;;;;11.00;1.43;;;;;;;;;;5021291;28;20434;-74
2023/01/01 12:35:12;;;;;;;4.30;1.00;;;;;;;;;;5022400;28;20471;-74
2023/01/01 12:37:50;;;;;;;1.90;1.43;;;;;;;;;;5026556;28;20537;-75
2023/01/01 12:40:32;;;;;;;7.40;2.40;;;;;;;;;;5023977;28;20437;-74
2023/01/01 12:43:04;;;;;;;2.27;1.37;;;;;;;;;;5005606;28;20443;-75
2023/01/01 12:45:30;;;;;;;3.80;1.63;;;;;;;;;;5025618;28;21185;-73
2023/01/01 12:47:56;;;;;;;6.70;2.20;;;;;;;;;;5021882;28;20488;-74
2023/01/01 12:50:40;;;;;;;2.27;1.50;;;;;;;;;;5025639;28;20886;-74
2023/01/01 12:53:21;;;;;;;2.20;2.03;;;;;;;;;;5024932;28;20459;-75
2023/01/01 12:56:06;;;;;;;2.63;1.40;;;;;;;;;;5003968;28;20485;-74
2023/01/01 12:58:42;;;;;;;3.17;1.50;;;;;;;;;;5024044;28;20422;-75
2023/01/01 13:01:21;;;;;;;1.80;1.80;;;;;;;;;;5022501;28;20449;-75
2023/01/01 13:03:49;;;;;;;2.40;1.60;;;;;;;;;;5023842;28;20410;-74
2023/01/01 13:06:17;;;;;;;4.47;1.73;;;;;;;;;;5022413;28;20426;-73
2023/01/01 13:08:47;;;;;;;1.97;1.90;;;;;;;;;;5018954;28;20455;-76
2023/01/01 13:11:13;;;;;;;1.20;1.20;;;;;;;;;;5026595;28;20427;-75
2023/01/01 13:13:39;;;;;;;3.93;1.97;;;;;;;;;;5026515;28;20446;-76
2023/01/01 13:16:10;;;;;;;3.00;2.40;;;;;;;;;;5024013;28;20427;-77
2023/01/01 13:18:36;;;;;;;2.07;1.90;;;;;;;;;;5020747;28;20438;-74
2023/01/01 13:21:14;;;;;;;1.97;1.73;;;;;;;;;;5020193;28;20733;-75
2023/01/01 13:23:41;;;;;;;2.87;1.60;;;;;;;;;;5015474;28;20765;-74
2023/01/01 13:26:19;;;;;;;2.07;1.50;;;;;;;;;;5025010;28;20437;-75
2023/01/01 13:28:57;;;;;;;3.17;1.70;;;;;;;;;;5025033;28;21242;-74
2023/01/01 13:31:39;;;;;;;5.13;1.67;;;;;;;;;;5020274;28;20445;-75
2023/01/01 13:34:23;;;;;;;4.80;2.03;;;;;;;;;;5023944;28;20540;-75
2023/01/01 13:36:49;;;;;;;4.00;1.90;;;;;;;;;;5027706;28;20451;-73
2023/01/01 13:39:34;;;;;;;2.73;2.63;;;;;;;;;;5016992;28;20431;-73
2023/01/01 13:42:00;;;;;;;5.37;2.70;;;;;;;;;;5021173;28;20473;-76
2023/01/01 13:44:26;;;;;;;2.70;2.20;;;;;;;;;;5025073;28;20839;-74
2023/01/01 13:47:13;;;;;;;6.27;3.50;;;;;;;;;;5020484;28;20454;-75
2023/01/01 13:49:51;;;;;;;3.43;1.33;;;;;;;;;;5022601;28;20422;-73
2023/01/01 13:52:36;;;;;;;3.70;2.23;;;;;;;;;;5016475;28;20987;-74
2023/01/01 13:55:30;;;;;;;2.80;1.50;;;;;;;;;;5014459;28;20458;-75
2023/01/01 13:57:59;;;;;;;1.83;1.60;;;;;;;;;;5017303;28;20426;-75
2023/01/01 14:00:28;;;;;;;3.40;1.77;;;;;;;;;;5022316;28;20442;-77
2023/01/01 14:03:02;;;;;;;3.20;3.10;;;;;;;;;;5019175;28;20458;-74
2023/01/01 14:05:57;;;;;;;3.67;2.70;;;;;;;;;;5018307;28;20464;-75
2023/01/01 14:08:27;;;;;;;4.23;1.90;;;;;;;;;;4998459;28;20415;-73
2023/01/01 14:10:53;;;;;;;1.60;1.50;;;;;;;;;;5018067;28;20525;-75
2023/01/01 14:13:26;;;;;;;2.83;1.67;;;;;;;;;;5023535;28;20429;-74
2023/01/01 14:15:55;;;;;;;6.27;2.27;;;;;;;;;;5026935;28;20449;-76
2023/01/01 14:18:24;;;;;;;1.53;1.43;;;;;;;;;;5025210;28;20414;-74
2023/01/01 14:20:53;;;;;;;2.20;1.77;;;;;;;;;;5026036;28;20445;-74
2023/01/01 14:23:22;;;;;;;2.97;1.90;;;;;;;;;;5027211;28;20442;-75
2023/01/01 14:25:48;;;;;;;4.17;1.60;;;;;;;;;;5028254;28;20437;-73
2023/01/01 14:28:31;;;;;;;3.53;2.03;;;;;;;;;;5025195;28;20480;-74
2023/01/01 14:30:59;;;;;;;2.27;2.07;;;;;;;;;;5005829;28;20520;-75
2023/01/01 14:33:29;;;;;;;2.63;2.00;;;;;;;;;;5027682;28;20410;-75
2023/01/01 14:36:03;;;;;;;3.90;1.77;;;;;;;;;;5029419;28;20742;-76
2023/01/01 14:38:30;;;;;;;2.57;1.80;;;;;;;;;;5024180;28;20442;-76
2023/01/01 14:41:01;;;;;;;1.47;1.37;;;;;;;;;;5025704;28;20488;-74
2023/01/01 14:43:27;;;;;;;2.03;1.93;;;;;;;;;;5022941;28;20453;-75
2023/01/01 14:45:53;;;;;;;6.43;1.57;;;;;;;;;;5025811;28;20446;-75
2023/01/01 14:48:20;;;;;;;2.40;2.20;;;;;;;;;;5024461;28;20427;-77
2023/01/01 14:50:50;;;;;;;3.17;1.70;;;;;;;;;;5019835;28;20433;-75
2023/01/01 14:53:19;;;;;;;2.20;2.10;;;;;;;;;;5027086;28;20513;-75
2023/01/01 14:55:46;;;;;;;2.30;1.40;;;;;;;;;;5027389;28;21007;-75